Time;durP1;ratioP1;P1;durP2;ratioP2;P2;SDS_P1;SDS_P2;PMS_P1;PMS_P2;Temp;Humidity;BMP_temperature;BMP_pressure;BME280_temperature;BME280_humidity;BME280_pressure;Samples;Min_cycle;Max_cycle;Signal;HPM_P1;HPM_P2
2022/07/04 00:00:23;;;;;;;0.00;0.00;;;14.60;99.90;;;;;;5117184;27;20466;-80
2022/07/04 00:02:49;;;;;;;0.00;0.00;;;14.60;99.90;;;;;;5117423;27;20505;-80
2022/07/04 00:05:17;;;;;;;0.00;0.00;;;14.60;99.90;;;;;;5117309;27;20127;-80
2022/07/04 00:07:44;;;;;;;4.47;0.00;;;14.60;99.90;;;;;;5116628;27;20054;-80
2022/07/04 00:10:14;;;;;;;0.00;0.00;;;14.60;99.90;;;;;;5117197;27;20055;-80
2022/07/04 00:12:40;;;;;;;0.00;0.00;;;14.50;99.90;;;;;;5100042;27;20053;-80
2022/07/04 00:15:07;;;;;;;0.00;0.00;;;14.50;99.90;;;;;;5117004;27;20138;-81
2022/07/04 00:17:33;;;;;;;0.00;0.00;;;14.50;99.90;;;;;;5100010;27;20043;-81
2022/07/04 00:19:59;;;;;;;0.00;0.00;;;14.40;99.90;;;;;;5117465;27;20099;-80
2022/07/04 00:22:25;;;;;;;0.00;0.00;;;14.40;99.90;;;;;;5117384;27;20043;-80
2022/07/04 00:24:50;;;;;;;0.00;0.00;;;14.40;99.90;;;;;;5116948;27;20046;-80
2022/07/04 00:27:16;;;;;;;0.00;0.00;;;14.30;99.90;;;;;;5099568;27;20047;-80
2022/07/04 00:29:42;;;;;;;0.00;0.00;;;14.40;99.90;;;;;;5116956;27;20126;-80
2022/07/04 00:32:08;;;;;;;0.00;0.00;;;14.30;99.90;;;;;;5099661;27;20039;-80
2022/07/04 00:34:34;;;;;;;0.43;0.20;;;14.30;99.90;;;;;;5117304;27;20062;-80
2022/07/04 00:36:59;;;;;;;0.00;0.00;;;14.20;99.90;;;;;;5116867;27;20047;-80
2022/07/04 00:39:25;;;;;;;0.00;0.00;;;14.30;99.90;;;;;;5116890;27;20045;-80
2022/07/04 00:41:51;;;;;;;0.00;0.00;;;14.20;99.90;;;;;;5099716;28;20061;-81
2022/07/04 00:44:16;;;;;;;0.00;0.00;;;14.20;99.90;;;;;;5099680;28;20086;-80
2022/07/04 00:46:43;;;;;;;0.08;0.00;;;14.20;99.90;;;;;;5116644;28;20042;-80
2022/07/04 00:49:10;;;;;;;0.00;0.00;;;14.20;99.90;;;;;;5099901;28;20094;-80
2022/07/04 00:51:38;;;;;;;0.20;0.00;;;14.20;99.90;;;;;;5117277;27;20459;-80
2022/07/04 00:54:05;;;;;;;0.00;0.00;;;14.20;99.90;;;;;;5120969;27;20043;-80
2022/07/04 00:56:31;;;;;;;0.00;0.00;;;14.20;99.90;;;;;;5103870;27;20526;-80
2022/07/04 00:58:58;;;;;;;0.00;0.00;;;14.20;99.90;;;;;;5103344;27;20089;-80
2022/07/04 01:01:25;;;;;;;0.00;0.00;;;14.20;99.90;;;;;;5121294;27;20406;-80
2022/07/04 01:03:51;;;;;;;0.00;0.00;;;14.20;99.90;;;;;;5120995;27;20402;-80
2022/07/04 01:06:19;;;;;;;0.00;0.00;;;14.20;99.90;;;;;;5103261;27;20066;-80
2022/07/04 01:08:45;;;;;;;0.00;0.00;;;14.20;99.90;;;;;;5102725;27;20517;-80
2022/07/04 01:11:12;;;;;;;0.00;0.00;;;14.10;99.90;;;;;;5103547;27;20125;-80
2022/07/04 01:13:38;;;;;;;0.00;0.00;;;14.10;99.90;;;;;;5120502;27;20043;-80
2022/07/04 01:16:04;;;;;;;0.00;0.00;;;14.10;99.90;;;;;;5120566;27;20047;-80
2022/07/04 01:18:31;;;;;;;0.00;0.00;;;14.00;99.90;;;;;;5103942;27;20047;-80
2022/07/04 01:20:56;;;;;;;0.00;0.00;;;14.00;99.90;;;;;;5120361;27;20059;-81
2022/07/04 01:23:22;;;;;;;0.00;0.00;;;13.90;99.90;;;;;;5120146;27;20039;-80
2022/07/04 01:25:52;;;;;;;0.00;0.00;;;13.90;99.90;;;;;;5120341;27;20384;-81
2022/07/04 01:28:24;;;;;;;0.10;0.10;;;13.80;99.90;;;;;;5102995;27;20039;-81
2022/07/04 01:30:51;;;;;;;0.00;0.00;;;13.80;99.90;;;;;;5103735;27;20051;-81
2022/07/04 01:33:19;;;;;;;0.00;0.00;;;13.80;99.90;;;;;;5102915;27;20498;-80
2022/07/04 01:35:46;;;;;;;0.10;0.10;;;13.80;99.90;;;;;;5120065;27;20047;-81
2022/07/04 01:38:11;;;;;;;0.00;0.00;;;13.80;99.90;;;;;;5103079;27;20486;-81
2022/07/04 01:40:37;;;;;;;2.10;0.47;;;13.80;99.90;;;;;;5119900;27;20050;-81
2022/07/04 01:43:03;;;;;;;0.00;0.00;;;13.80;99.90;;;;;;5120038;27;20086;-81
2022/07/04 01:45:28;;;;;;;0.00;0.00;;;13.80;99.90;;;;;;5119950;27;20462;-81
2022/07/04 01:47:54;;;;;;;0.00;0.00;;;13.70;99.90;;;;;;5102168;27;20142;-81
2022/07/04 01:50:20;;;;;;;0.00;0.00;;;13.70;99.90;;;;;;5102413;27;20047;-81
2022/07/04 01:52:46;;;;;;;0.00;0.00;;;13.60;99.90;;;;;;5119869;27;20391;-81
2022/07/04 01:55:12;;;;;;;0.00;0.00;;;13.70;99.90;;;;;;5102269;27;20087;-81
2022/07/04 01:57:39;;;;;;;0.00;0.00;;;13.60;99.90;;;;;;5102779;27;20089;-81
2022/07/04 02:02:52;;;;;;;0.00;0.00;;;13.50;99.90;;;;;;5119561;27;20130;-81
2022/07/04 02:05:18;;;;;;;0.00;0.00;;;13.50;99.90;;;;;;5118839;27;20085;-81
2022/07/04 02:07:43;;;;;;;0.00;0.00;;;13.40;99.90;;;;;;5102205;27;20048;-81
2022/07/04 02:10:10;;;;;;;0.00;0.00;;;13.40;99.90;;;;;;5102469;27;20039;-81
2022/07/04 02:15:19;;;;;;;0.00;0.00;;;13.40;99.90;;;;;;5119733;27;20376;-81
2022/07/04 02:17:45;;;;;;;0.00;0.00;;;13.40;99.90;;;;;;5102321;27;20046;-81
2022/07/04 02:20:11;;;;;;;0.00;0.00;;;13.40;99.90;;;;;;5101944;27;20050;-81
2022/07/04 02:22:37;;;;;;;0.00;0.00;;;13.40;99.90;;;;;;5102635;27;20050;-81
2022/07/04 02:25:03;;;;;;;0.00;0.00;;;13.40;99.90;;;;;;5119307;27;20050;-81
2022/07/04 02:27:29;;;;;;;0.00;0.00;;;13.40;99.90;;;;;;5101529;27;20047;-82
2022/07/04 02:29:54;;;;;;;0.35;0.00;;;13.40;99.90;;;;;;5119075;27;20402;-81
2022/07/04 02:32:20;;;;;;;0.00;0.00;;;13.40;99.90;;;;;;5119061;27;20043;-81
2022/07/04 02:34:46;;;;;;;0.00;0.00;;;13.40;99.90;;;;;;5118962;27;20043;-81
2022/07/04 02:37:12;;;;;;;0.00;0.00;;;13.40;99.90;;;;;;5119132;27;20547;-81
2022/07/04 02:39:37;;;;;;;0.00;0.00;;;13.40;99.90;;;;;;5102025;27;20487;-81
2022/07/04 02:42:03;;;;;;;0.00;0.00;;;13.40;99.90;;;;;;5118672;27;20043;-81
2022/07/04 02:44:30;;;;;;;0.00;0.00;;;13.40;99.90;;;;;;5118844;27;20085;-81
2022/07/04 02:46:56;;;;;;;0.00;0.00;;;13.50;99.90;;;;;;5101459;27;20043;-81
2022/07/04 02:49:22;;;;;;;0.00;0.00;;;13.50;99.90;;;;;;5101128;27;20055;-81
2022/07/04 02:51:47;;;;;;;0.00;0.00;;;13.50;99.90;;;;;;5118790;27;20070;-81
2022/07/04 02:54:13;;;;;;;0.00;0.00;;;13.50;99.90;;;;;;5101537;27;20364;-81
2022/07/04 02:56:39;;;;;;;0.00;0.00;;;13.50;99.90;;;;;;5101521;27;20135;-81
2022/07/04 02:59:04;;;;;;;0.00;0.00;;;13.50;99.90;;;;;;5118516;27;20451;-81
2022/07/04 03:01:31;;;;;;;0.00;0.00;;;13.50;99.90;;;;;;5118354;27;20373;-81
2022/07/04 03:03:57;;;;;;;0.00;0.00;;;13.50;99.90;;;;;;5118001;27;20513;-81
2022/07/04 03:06:23;;;;;;;0.00;0.00;;;13.50;99.90;;;;;;5100783;27;20051;-81
2022/07/04 03:08:48;;;;;;;0.00;0.00;;;13.50;99.90;;;;;;5117615;27;20054;-81
2022/07/04 03:11:14;;;;;;;0.00;0.00;;;13.50;99.90;;;;;;5101023;27;20061;-81
2022/07/04 03:13:40;;;;;;;0.00;0.00;;;13.60;99.90;;;;;;5101220;27;20085;-81
2022/07/04 03:16:06;;;;;;;0.00;0.00;;;13.60;99.90;;;;;;5100015;27;20140;-81
2022/07/04 03:18:32;;;;;;;0.00;0.00;;;13.50;99.90;;;;;;5101095;27;20192;-81
2022/07/04 03:20:58;;;;;;;0.00;0.00;;;13.60;99.90;;;;;;5100570;27;20039;-81
2022/07/04 03:23:24;;;;;;;0.00;0.00;;;13.60;99.90;;;;;;5098843;27;20138;-81
2022/07/04 03:25:49;;;;;;;0.00;0.00;;;13.60;99.90;;;;;;5116006;27;20082;-81
2022/07/04 03:28:15;;;;;;;0.00;0.00;;;13.60;99.90;;;;;;5100273;27;20054;-80
2022/07/04 03:30:41;;;;;;;0.00;0.00;;;13.70;99.90;;;;;;5100464;27;20055;-81
2022/07/04 03:33:06;;;;;;;0.00;0.00;;;13.60;99.90;;;;;;5100805;27;20496;-81
2022/07/04 03:35:32;;;;;;;0.00;0.00;;;13.60;99.90;;;;;;5118416;27;20115;-81
2022/07/04 03:37:58;;;;;;;0.00;0.00;;;13.60;99.90;;;;;;5117873;27;20138;-81
2022/07/04 03:40:24;;;;;;;0.00;0.00;;;13.60;99.90;;;;;;5117647;27;20078;-81
2022/07/04 03:42:50;;;;;;;0.00;0.00;;;13.60;99.90;;;;;;5100350;27;20406;-81
2022/07/04 03:45:15;;;;;;;0.00;0.00;;;13.70;99.90;;;;;;5100074;27;20062;-81
2022/07/04 03:47:41;;;;;;;0.00;0.00;;;13.70;99.90;;;;;;5117460;27;20043;-82
2022/07/04 03:50:08;;;;;;;0.00;0.00;;;13.70;99.90;;;;;;5117501;27;20043;-81
2022/07/04 03:52:33;;;;;;;0.00;0.00;;;13.70;99.90;;;;;;5117416;27;20482;-82
2022/07/04 03:54:59;;;;;;;0.00;0.00;;;13.70;99.90;;;;;;5117218;27;20051;-82
2022/07/04 03:57:25;;;;;;;0.03;0.00;;;13.70;99.90;;;;;;5134535;27;20058;-81
2022/07/04 03:59:50;;;;;;;0.00;0.00;;;13.70;99.90;;;;;;5117019;27;20039;-81
2022/07/04 04:02:16;;;;;;;0.00;0.00;;;13.70;99.90;;;;;;5117151;27;20428;-81
2022/07/04 04:07:26;;;;;;;0.00;0.00;;;13.80;99.90;;;;;;5116606;27;20059;-81
2022/07/04 04:09:52;;;;;;;0.00;0.00;;;13.80;99.90;;;;;;5116812;27;20046;-81
2022/07/04 04:12:17;;;;;;;0.10;0.10;;;13.80;99.90;;;;;;5116727;27;20051;-83
2022/07/04 04:14:43;;;;;;;0.00;0.00;;;13.80;99.90;;;;;;5116582;27;20063;-81
2022/07/04 04:17:09;;;;;;;0.00;0.00;;;13.90;99.90;;;;;;5100623;27;20083;-82
2022/07/04 04:19:35;;;;;;;0.00;0.00;;;13.90;99.90;;;;;;5116142;27;20080;-81
2022/07/04 04:22:00;;;;;;;0.00;0.00;;;13.90;99.90;;;;;;5099950;27;20137;-81
2022/07/04 04:24:26;;;;;;;0.00;0.00;;;13.90;99.90;;;;;;5116782;27;20039;-81
2022/07/04 04:26:51;;;;;;;0.00;0.00;;;13.90;99.90;;;;;;5116002;27;20143;-81
2022/07/04 04:29:17;;;;;;;0.00;0.00;;;13.90;99.90;;;;;;5099458;27;20141;-81
2022/07/04 04:31:43;;;;;;;0.10;0.00;;;14.00;99.90;;;;;;5099106;27;20066;-82
2022/07/04 04:34:09;;;;;;;0.00;0.00;;;13.90;99.90;;;;;;5099808;27;20055;-82
2022/07/04 04:36:36;;;;;;;0.00;0.00;;;13.90;99.90;;;;;;5116387;28;20082;-81
2022/07/04 04:39:02;;;;;;;0.15;0.00;;;14.00;99.90;;;;;;5116951;27;20039;-81
2022/07/04 04:41:28;;;;;;;0.00;0.00;;;14.00;99.90;;;;;;5116703;28;20113;-82
2022/07/04 04:43:54;;;;;;;0.00;0.00;;;14.10;99.90;;;;;;5099271;28;20039;-82
2022/07/04 04:46:20;;;;;;;0.20;0.00;;;14.00;99.90;;;;;;5116696;28;20045;-81
2022/07/04 04:48:46;;;;;;;0.00;0.00;;;14.00;99.90;;;;;;5116114;28;20043;-81
2022/07/04 04:51:15;;;;;;;0.00;0.00;;;14.10;99.90;;;;;;5116583;28;20410;-81
2022/07/04 04:53:41;;;;;;;0.00;0.00;;;14.20;99.90;;;;;;5116512;28;20479;-81
2022/07/04 04:56:06;;;;;;;0.47;0.28;;;14.20;99.90;;;;;;5116494;28;20046;-81
2022/07/04 04:58:32;;;;;;;0.00;0.00;;;14.20;99.90;;;;;;5116424;28;20044;-81
2022/07/04 05:00:58;;;;;;;0.00;0.00;;;14.20;99.90;;;;;;5099019;28;20126;-81
2022/07/04 05:03:29;;;;;;;0.00;0.00;;;14.20;99.90;;;;;;5115492;28;20047;-80
2022/07/04 05:05:55;;;;;;;0.00;0.00;;;14.30;99.90;;;;;;5099604;28;20055;-81
2022/07/04 05:08:24;;;;;;;0.00;0.00;;;14.30;99.90;;;;;;5115717;28;20082;-81
2022/07/04 05:10:50;;;;;;;1.13;0.00;;;14.30;99.90;;;;;;5116441;28;20051;-81
2022/07/04 05:13:16;;;;;;;0.00;0.00;;;14.30;99.90;;;;;;5116221;28;20525;-81
2022/07/04 05:15:41;;;;;;;0.00;0.00;;;14.30;99.90;;;;;;5116807;28;20457;-81
2022/07/04 05:18:07;;;;;;;0.00;0.00;;;14.40;99.90;;;;;;5115935;28;20134;-81
2022/07/04 05:20:33;;;;;;;0.00;0.00;;;14.50;99.90;;;;;;5115846;28;20112;-80
2022/07/04 05:22:59;;;;;;;0.00;0.00;;;14.50;99.90;;;;;;5099455;28;20050;-80
2022/07/04 05:25:25;;;;;;;0.10;0.10;;;14.50;99.90;;;;;;5098809;28;20091;-80
2022/07/04 05:27:51;;;;;;;0.00;0.00;;;14.60;99.90;;;;;;5099041;28;20039;-80
2022/07/04 05:30:17;;;;;;;0.10;0.10;;;14.70;99.90;;;;;;5116316;28;20039;-80
2022/07/04 05:32:43;;;;;;;0.00;0.00;;;14.70;99.90;;;;;;5115997;28;20065;-79
2022/07/04 05:35:09;;;;;;;0.00;0.00;;;14.80;99.90;;;;;;5099268;28;20043;-80
2022/07/04 05:37:37;;;;;;;0.00;0.00;;;14.80;99.90;;;;;;5116156;28;20035;-80
2022/07/04 05:40:04;;;;;;;0.17;0.00;;;15.00;99.90;;;;;;5101437;27;20051;-79
2022/07/04 05:42:29;;;;;;;0.00;0.00;;;15.00;99.90;;;;;;5119927;27;20095;-79
2022/07/04 05:44:55;;;;;;;0.00;0.00;;;15.10;99.90;;;;;;5119925;27;20130;-79
2022/07/04 05:47:24;;;;;;;0.00;0.00;;;15.20;99.90;;;;;;5119626;27;20112;-79
2022/07/04 05:49:50;;;;;;;0.00;0.00;;;15.50;99.90;;;;;;5102400;27;20055;-79
2022/07/04 05:52:16;;;;;;;0.00;0.00;;;16.10;99.90;;;;;;5119353;27;20551;-80
2022/07/04 05:54:42;;;;;;;0.00;0.00;;;16.50;99.90;;;;;;5118919;27;20058;-79
2022/07/04 05:57:08;;;;;;;0.00;0.00;;;16.60;99.90;;;;;;5119475;27;20107;-80
2022/07/04 05:59:34;;;;;;;0.00;0.00;;;16.50;99.90;;;;;;5102148;27;20398;-80
2022/07/04 06:02:00;;;;;;;2.63;0.28;;;16.40;99.90;;;;;;5119367;27;20054;-80
2022/07/04 06:04:25;;;;;;;0.05;0.00;;;16.30;99.90;;;;;;5119475;27;20059;-80
2022/07/04 06:06:51;;;;;;;0.00;0.00;;;16.20;99.90;;;;;;5101590;27;20057;-80
2022/07/04 06:09:17;;;;;;;0.00;0.00;;;16.10;99.90;;;;;;5102253;27;20080;-79
2022/07/04 06:11:43;;;;;;;0.00;0.00;;;16.00;99.90;;;;;;5102077;27;20050;-80
2022/07/04 06:14:09;;;;;;;0.08;0.08;;;16.00;99.90;;;;;;5101995;27;20131;-80
2022/07/04 06:16:34;;;;;;;0.03;0.03;;;16.00;99.90;;;;;;5102294;27;20054;-80
2022/07/04 06:19:00;;;;;;;0.00;0.00;;;16.00;99.90;;;;;;5119539;27;20035;-80
2022/07/04 06:21:25;;;;;;;0.00;0.00;;;16.00;99.90;;;;;;5119319;27;20088;-80
2022/07/04 06:23:51;;;;;;;0.00;0.00;;;16.10;99.90;;;;;;5118716;27;20130;-79
2022/07/04 06:26:17;;;;;;;0.10;0.00;;;16.20;99.90;;;;;;5119339;27;20043;-79
2022/07/04 06:28:43;;;;;;;0.00;0.00;;;16.20;99.90;;;;;;5118711;27;20046;-80
2022/07/04 06:31:10;;;;;;;2.63;0.57;;;16.20;99.90;;;;;;5119107;27;20433;-80
2022/07/04 06:35:44;;;;;;;0.00;0.00;;;16.20;99.90;;;;;;5118963;27;20047;-81
2022/07/04 06:36:21;;;;;;;0.00;0.00;;;16.20;99.90;;;;;;5118776;27;20039;-80
2022/07/04 06:38:49;;;;;;;0.40;0.35;;;16.30;99.90;;;;;;5118144;27;20192;-80
2022/07/04 06:41:15;;;;;;;0.00;0.00;;;16.40;99.90;;;;;;5118036;27;20055;-81
2022/07/04 06:43:41;;;;;;;0.00;0.00;;;16.50;99.90;;;;;;5101005;27;20073;-80
2022/07/04 06:46:06;;;;;;;0.00;0.00;;;16.60;99.90;;;;;;5101269;27;20059;-80
2022/07/04 06:48:32;;;;;;;0.00;0.00;;;16.70;99.90;;;;;;5101279;27;20043;-81
2022/07/04 06:50:57;;;;;;;0.20;0.20;;;16.80;99.90;;;;;;5101312;27;20075;-81
2022/07/04 06:53:23;;;;;;;0.05;0.00;;;17.00;99.90;;;;;;5116727;27;20100;-81
2022/07/04 06:55:49;;;;;;;0.00;0.00;;;17.10;99.90;;;;;;5099240;27;20050;-81
2022/07/04 06:58:14;;;;;;;0.00;0.00;;;17.20;99.90;;;;;;5117903;27;20043;-80
2022/07/04 07:00:41;;;;;;;0.40;0.08;;;17.30;99.90;;;;;;5118418;27;20070;-80
2022/07/04 07:03:07;;;;;;;0.00;0.00;;;17.20;99.90;;;;;;5101534;27;20139;-80
2022/07/04 07:05:36;;;;;;;0.00;0.00;;;17.30;99.90;;;;;;5101209;27;20139;-81
2022/07/04 07:08:05;;;;;;;0.10;0.10;;;17.30;99.90;;;;;;5100990;27;20043;-81
2022/07/04 07:10:32;;;;;;;0.00;0.00;;;17.30;99.90;;;;;;5118210;27;20043;-80
2022/07/04 07:12:58;;;;;;;0.00;0.00;;;17.40;99.90;;;;;;5118930;27;20398;-80
2022/07/04 07:15:24;;;;;;;0.00;0.00;;;17.40;99.90;;;;;;5118161;27;20803;-80
2022/07/04 07:17:50;;;;;;;0.00;0.00;;;17.50;99.90;;;;;;5101154;27;20047;-80
2022/07/04 07:20:16;;;;;;;0.00;0.00;;;17.50;99.90;;;;;;5117856;27;20043;-81
2022/07/04 07:22:42;;;;;;;0.00;0.00;;;17.60;99.90;;;;;;5118025;27;20133;-81
2022/07/04 07:25:10;;;;;;;0.00;0.00;;;17.60;99.90;;;;;;5100925;27;20054;-80
2022/07/04 07:27:36;;;;;;;1.75;0.10;;;17.80;99.90;;;;;;5118103;27;20039;-80
2022/07/04 07:30:02;;;;;;;0.00;0.00;;;17.90;99.90;;;;;;5117633;27;20046;-80
2022/07/04 07:32:28;;;;;;;0.55;0.20;;;18.10;99.90;;;;;;5117391;27;20128;-80
2022/07/04 07:34:54;;;;;;;0.00;0.00;;;18.30;99.90;;;;;;5117217;27;20047;-80
2022/07/04 07:37:21;;;;;;;0.00;0.00;;;18.40;99.90;;;;;;5101347;27;20039;-80
2022/07/04 07:39:47;;;;;;;0.00;0.00;;;18.40;99.90;;;;;;5117822;27;20057;-80
2022/07/04 07:42:13;;;;;;;0.00;0.00;;;18.50;99.90;;;;;;5117857;27;20043;-80
2022/07/04 07:44:39;;;;;;;0.00;0.00;;;18.70;99.90;;;;;;5100667;27;20526;-80
2022/07/04 07:47:05;;;;;;;0.00;0.00;;;18.90;99.90;;;;;;5100464;27;20200;-80
2022/07/04 07:49:30;;;;;;;0.00;0.00;;;19.10;99.90;;;;;;5100575;27;20043;-80
2022/07/04 07:51:56;;;;;;;0.00;0.00;;;19.40;99.90;;;;;;5118271;27;20371;-77
2022/07/04 07:54:22;;;;;;;0.00;0.00;;;19.60;99.90;;;;;;5117486;27;20110;-77
2022/07/04 07:56:50;;;;;;;0.00;0.00;;;19.60;99.90;;;;;;5099800;27;20077;-77
2022/07/04 07:59:16;;;;;;;0.00;0.00;;;19.50;99.90;;;;;;5117296;27;20455;-77
2022/07/04 08:01:42;;;;;;;0.00;0.00;;;19.40;99.90;;;;;;5116615;27;20138;-77
2022/07/04 08:06:53;;;;;;;0.00;0.00;;;19.40;99.90;;;;;;5116770;27;20047;-80
2022/07/04 08:09:18;;;;;;;0.10;0.10;;;19.40;99.90;;;;;;5100163;27;20431;-80
2022/07/04 08:11:44;;;;;;;5.50;0.63;;;19.40;99.90;;;;;;5100106;27;20086;-80
2022/07/04 08:14:10;;;;;;;0.00;0.00;;;19.40;99.90;;;;;;5100006;27;20066;-80
2022/07/04 08:16:35;;;;;;;0.00;0.00;;;19.40;99.90;;;;;;5116556;27;20409;-80
2022/07/04 08:19:02;;;;;;;0.00;0.00;;;19.40;99.90;;;;;;5100077;27;20046;-80
2022/07/04 08:21:28;;;;;;;0.00;0.00;;;19.60;99.90;;;;;;5115934;28;20051;-80
2022/07/04 08:23:54;;;;;;;0.00;0.00;;;19.70;99.90;;;;;;5099789;27;20047;-80
2022/07/04 08:26:20;;;;;;;0.00;0.00;;;19.80;99.90;;;;;;5099511;27;20055;-77
2022/07/04 08:28:45;;;;;;;0.00;0.00;;;19.80;99.90;;;;;;5116420;27;20471;-77
2022/07/04 08:31:11;;;;;;;0.00;0.00;;;19.70;99.90;;;;;;5116814;27;20130;-77
2022/07/04 08:33:37;;;;;;;0.00;0.00;;;19.50;99.90;;;;;;5116803;27;20501;-77
2022/07/04 08:36:03;;;;;;;0.00;0.00;;;19.40;99.90;;;;;;5099147;27;20086;-77
2022/07/04 08:38:29;;;;;;;0.10;0.00;;;19.20;99.90;;;;;;5099222;28;20055;-77
2022/07/04 08:41:01;;;;;;;0.00;0.00;;;19.10;99.90;;;;;;5098595;28;20104;-78
2022/07/04 08:43:29;;;;;;;1.85;0.22;;;19.00;99.90;;;;;;5110910;28;20040;-80
2022/07/04 08:45:56;;;;;;;0.00;0.00;;;19.00;99.90;;;;;;5112255;28;20089;-80
2022/07/04 08:48:25;;;;;;;0.00;0.00;;;18.90;99.90;;;;;;5110175;28;20043;-80
2022/07/04 08:50:56;;;;;;;0.00;0.00;;;18.90;99.90;;;;;;5116270;28;20541;-80
2022/07/04 08:53:26;;;;;;;0.00;0.00;;;18.80;99.90;;;;;;5116619;28;20079;-81
2022/07/04 08:58:39;;;;;;;0.00;0.00;;;18.70;99.90;;;;;;5116212;28;20055;-80
2022/07/04 09:01:07;;;;;;;0.00;0.00;;;18.60;99.90;;;;;;5099448;28;20051;-80
2022/07/04 09:03:34;;;;;;;0.25;0.00;;;18.50;99.90;;;;;;5116578;28;20078;-80
2022/07/04 09:06:00;;;;;;;0.00;0.00;;;18.50;99.90;;;;;;5116299;28;20398;-80
2022/07/04 09:08:29;;;;;;;0.00;0.00;;;18.60;99.90;;;;;;5116164;28;20496;-80
2022/07/04 09:10:55;;;;;;;0.00;0.00;;;18.80;99.90;;;;;;5115955;28;20043;-78
2022/07/04 09:13:21;;;;;;;0.00;0.00;;;19.20;99.90;;;;;;5116372;28;20424;-80
2022/07/04 09:15:49;;;;;;;0.00;0.00;;;19.50;99.90;;;;;;5103225;27;20135;-80
2022/07/04 09:18:20;;;;;;;0.00;0.00;;;19.70;99.90;;;;;;5120191;27;20574;-80
2022/07/04 09:20:46;;;;;;;0.00;0.00;;;19.80;99.90;;;;;;5102809;27;20104;-80
2022/07/04 09:23:21;;;;;;;0.00;0.00;;;20.10;99.90;;;;;;5120301;27;20054;-80
2022/07/04 09:25:48;;;;;;;0.00;0.00;;;20.20;99.90;;;;;;5103455;27;20089;-80
2022/07/04 09:28:27;;;;;;;0.00;0.00;;;20.10;99.90;;;;;;5102979;27;20084;-77
2022/07/04 09:30:53;;;;;;;0.00;0.00;;;20.00;99.90;;;;;;5103308;27;20047;-77
2022/07/04 09:33:19;;;;;;;0.13;0.10;;;20.20;99.90;;;;;;5120218;27;20614;-77
2022/07/04 09:35:45;;;;;;;0.00;0.00;;;20.40;99.90;;;;;;5119801;27;20089;-77
2022/07/04 09:38:14;;;;;;;0.00;0.00;;;20.70;99.90;;;;;;5102341;27;20082;-77
2022/07/04 09:43:25;;;;;;;0.00;0.00;;;21.30;99.90;;;;;;5120224;27;20398;-79
2022/07/04 09:46:03;;;;;;;0.00;0.00;;;21.60;99.90;;;;;;5102968;27;20043;-79
2022/07/04 09:48:49;;;;;;;0.00;0.00;;;21.80;99.90;;;;;;5120341;27;20136;-77
2022/07/04 09:51:14;;;;;;;0.00;0.00;;;21.90;99.90;;;;;;5119848;27;20094;-77
2022/07/04 09:53:40;;;;;;;0.00;0.00;;;22.00;99.90;;;;;;5119792;27;20050;-79
2022/07/04 09:56:06;;;;;;;1.85;0.55;;;22.10;99.90;;;;;;5119831;27;20039;-77
2022/07/04 09:58:31;;;;;;;0.00;0.00;;;22.00;99.90;;;;;;5119676;27;20111;-78
2022/07/04 10:00:59;;;;;;;0.00;0.00;;;22.20;99.90;;;;;;5102675;27;20046;-77
2022/07/04 10:03:27;;;;;;;0.00;0.00;;;22.20;99.90;;;;;;5119517;27;20104;-78
2022/07/04 10:06:11;;;;;;;0.00;0.00;;;22.30;99.90;;;;;;5102450;27;20050;-78
2022/07/04 10:08:41;;;;;;;0.00;0.00;;;22.30;99.90;;;;;;5119220;27;20399;-78
2022/07/04 10:11:07;;;;;;;0.00;0.00;;;22.20;99.90;;;;;;5102664;27;20049;-78
2022/07/04 10:13:33;;;;;;;0.00;0.00;;;21.90;99.30;;;;;;5119294;27;20395;-78
2022/07/04 10:15:59;;;;;;;0.00;0.00;;;21.80;99.90;;;;;;5102373;27;20082;-78
2022/07/04 10:18:25;;;;;;;0.00;0.00;;;21.50;99.90;;;;;;5119190;27;20522;-78
2022/07/04 10:20:53;;;;;;;0.35;0.10;;;21.40;99.90;;;;;;5119229;27;20054;-78
2022/07/04 10:23:21;;;;;;;0.80;0.38;;;21.60;99.90;;;;;;5100978;27;20115;-79
2022/07/04 10:25:48;;;;;;;0.00;0.00;;;21.80;99.90;;;;;;5101520;27;20133;-79
2022/07/04 10:28:15;;;;;;;0.00;0.00;;;21.90;99.90;;;;;;5101346;27;20047;-78
2022/07/04 10:30:41;;;;;;;0.00;0.00;;;21.90;99.90;;;;;;5101999;27;20051;-79
2022/07/04 10:33:11;;;;;;;0.00;0.00;;;21.80;99.90;;;;;;5119168;27;20428;-79
2022/07/04 10:35:48;;;;;;;0.00;0.00;;;21.70;99.90;;;;;;5102019;27;20046;-79
2022/07/04 10:38:16;;;;;;;0.00;0.00;;;21.50;99.90;;;;;;5101910;27;20054;-78
2022/07/04 10:41:05;;;;;;;0.00;0.00;;;21.30;99.90;;;;;;5102014;27;20047;-79
2022/07/04 10:43:31;;;;;;;0.75;0.15;;;21.60;99.90;;;;;;5101255;27;20055;-79
2022/07/04 10:46:24;;;;;;;0.00;0.00;;;21.80;99.90;;;;;;5101863;27;20047;-79
2022/07/04 10:49:07;;;;;;;0.00;0.00;;;22.00;99.90;;;;;;5101410;27;20051;-79
2022/07/04 10:51:38;;;;;;;0.00;0.00;;;21.90;99.90;;;;;;5100915;27;20096;-79
2022/07/04 10:54:21;;;;;;;0.03;0.00;;;21.60;99.20;;;;;;5101741;27;20146;-79
2022/07/04 10:56:51;;;;;;;1.92;0.35;;;21.40;99.20;;;;;;5101383;27;20509;-80
2022/07/04 10:59:28;;;;;;;0.00;0.00;;;21.30;98.90;;;;;;5118728;27;20039;-79
2022/07/04 11:02:06;;;;;;;0.08;0.00;;;21.30;99.90;;;;;;5118636;27;20078;-79
2022/07/04 11:04:48;;;;;;;0.30;0.00;;;21.50;99.90;;;;;;5101407;27;20130;-80
2022/07/04 11:07:20;;;;;;;0.00;0.00;;;21.90;99.70;;;;;;5117794;27;20051;-80
2022/07/04 11:09:47;;;;;;;0.00;0.00;;;22.20;99.60;;;;;;5100282;27;20065;-80
2022/07/04 11:12:14;;;;;;;0.00;0.00;;;22.30;98.20;;;;;;5118098;27;20126;-81
2022/07/04 11:14:45;;;;;;;0.00;0.00;;;22.50;97.80;;;;;;5117447;27;20051;-80
2022/07/04 11:17:20;;;;;;;0.00;0.00;;;22.60;98.10;;;;;;5100216;27;20047;-81
2022/07/04 11:19:47;;;;;;;0.00;0.00;;;22.80;96.50;;;;;;5101162;27;20131;-80
2022/07/04 11:22:22;;;;;;;0.00;0.00;;;22.80;95.80;;;;;;5117849;27;20055;-81
2022/07/04 11:24:53;;;;;;;0.00;0.00;;;22.90;97.90;;;;;;5118177;27;20425;-81
2022/07/04 11:27:22;;;;;;;0.00;0.00;;;23.00;95.90;;;;;;5117804;27;20042;-80
2022/07/04 11:29:54;;;;;;;0.10;0.10;;;23.10;96.40;;;;;;5100902;27;20120;-80
2022/07/04 11:32:29;;;;;;;0.00;0.00;;;23.20;94.90;;;;;;5100238;27;20058;-80
2022/07/04 11:34:55;;;;;;;;;;;23.20;95.80;;;;;;5101347;27;20127;-81
2022/07/04 11:37:21;;;;;;;0.00;0.00;;;22.90;95.30;;;;;;5099156;27;19977;-81
2022/07/04 11:39:51;;;;;;;0.10;0.10;;;22.80;96.60;;;;;;5117690;27;20056;-80
2022/07/04 11:45:07;;;;;;;;;;;23.10;97.70;;;;;;5117945;27;20043;-81
2022/07/04 11:47:43;;;;;;;0.00;0.00;;;23.20;97.20;;;;;;5117655;27;19931;-81
2022/07/04 11:50:13;;;;;;;0.10;0.00;;;23.10;96.00;;;;;;5117417;27;20130;-81
2022/07/04 11:52:44;;;;;;;0.13;0.00;;;22.80;95.00;;;;;;5117782;27;20047;-81
2022/07/04 11:55:14;;;;;;;0.00;0.00;;;22.90;96.60;;;;;;5117503;27;20047;-81
2022/07/04 11:57:45;;;;;;;0.00;0.00;;;23.20;97.70;;;;;;5135513;27;20046;-81
2022/07/04 12:00:17;;;;;;;0.00;0.00;;;23.30;95.50;;;;;;5100431;27;20137;-81
2022/07/04 12:02:44;;;;;;;0.00;0.00;;;23.40;95.60;;;;;;5100507;27;20054;-81
2022/07/04 12:05:14;;;;;;;0.00;0.00;;;23.30;95.70;;;;;;5100261;27;20636;-80
2022/07/04 12:07:45;;;;;;;0.10;0.10;;;23.50;95.40;;;;;;5116526;27;20051;-80
2022/07/04 12:10:24;;;;;;;0.00;0.00;;;23.80;95.70;;;;;;5116775;27;20497;-80
2022/07/04 12:12:54;;;;;;;0.00;0.00;;;24.00;94.70;;;;;;5099653;27;20047;-80
2022/07/04 12:15:21;;;;;;;0.00;0.00;;;24.10;93.70;;;;;;5115227;27;20047;-81
2022/07/04 12:17:55;;;;;;;0.00;0.00;;;24.10;93.50;;;;;;5134106;27;20047;-80
2022/07/04 12:20:22;;;;;;;0.00;0.00;;;24.20;93.50;;;;;;5116833;27;20082;-81
2022/07/04 12:22:52;;;;;;;0.00;0.00;;;24.20;93.90;;;;;;5117151;27;20051;-81
2022/07/04 12:25:27;;;;;;;0.00;0.00;;;24.40;94.10;;;;;;5099561;27;20050;-81
2022/07/04 12:28:01;;;;;;;0.00;0.00;;;24.30;92.80;;;;;;5116947;27;20138;-81
2022/07/04 12:30:30;;;;;;;0.00;0.00;;;24.20;93.00;;;;;;5116579;27;20046;-81
2022/07/04 12:33:01;;;;;;;0.00;0.00;;;24.00;92.20;;;;;;5117004;27;20085;-81
2022/07/04 12:35:47;;;;;;;0.00;0.00;;;23.60;92.00;;;;;;5099763;27;20052;-80
2022/07/04 12:38:15;;;;;;;0.00;0.00;;;23.60;93.60;;;;;;5099866;28;20388;-80
2022/07/04 12:40:56;;;;;;;0.00;0.00;;;23.70;93.00;;;;;;5099473;27;20085;-81
2022/07/04 12:43:23;;;;;;;0.00;0.00;;;23.90;93.10;;;;;;5117242;28;20482;-80
2022/07/04 12:45:54;;;;;;;0.00;0.00;;;24.00;92.80;;;;;;5099662;27;20092;-80
2022/07/04 12:48:25;;;;;;;0.00;0.00;;;23.80;91.40;;;;;;5116347;28;20039;-80
2022/07/04 12:50:52;;;;;;;0.00;0.00;;;23.80;91.90;;;;;;5116764;28;20082;-80
2022/07/04 12:53:18;;;;;;;0.00;0.00;;;23.90;93.00;;;;;;5116621;28;20134;-81
2022/07/04 12:55:46;;;;;;;0.00;0.00;;;24.00;93.60;;;;;;5099513;28;20069;-81
2022/07/04 12:58:12;;;;;;;0.00;0.00;;;24.10;92.90;;;;;;5116489;28;20050;-81
2022/07/04 13:00:39;;;;;;;0.00;0.00;;;24.20;93.30;;;;;;5116394;28;20086;-80
2022/07/04 13:03:07;;;;;;;0.00;0.00;;;24.30;92.80;;;;;;5116392;28;20181;-81
2022/07/04 13:05:37;;;;;;;0.00;0.00;;;24.30;92.90;;;;;;5098621;28;20055;-81
2022/07/04 13:08:04;;;;;;;0.38;0.20;;;24.20;91.20;;;;;;5115895;28;20067;-81